Time;durP1;ratioP1;P1;durP2;ratioP2;P2;SDS_P1;SDS_P2;PMS_P1;PMS_P2;Temp;Humidity;BMP_temperature;BMP_pressure;BME280_temperature;BME280_humidity;BME280_pressure;Samples;Min_cycle;Max_cycle;Signal;HPM_P1;HPM_P2
2022/12/26 00:00:33;;;;;;;6.13;4.60;;;;;;;9.53;86.12;98070.28;4964934;28;20042;-82
2022/12/26 00:02:58;;;;;;;6.32;4.03;;;;;;;9.56;86.09;98079.59;4965152;28;20039;-82
2022/12/26 00:05:24;;;;;;;7.93;4.10;;;;;;;9.58;86.35;98082.81;4965673;28;20235;-83
2022/12/26 00:07:49;;;;;;;4.75;3.83;;;;;;;9.59;85.78;98081.81;4967124;28;20122;-82
2022/12/26 00:10:15;;;;;;;4.85;4.35;;;;;;;9.60;85.73;98076.41;4965501;28;20532;-83
2022/12/26 00:12:40;;;;;;;5.78;4.47;;;;;;;9.63;85.42;98078.59;4966300;28;20049;-82
2022/12/26 00:15:06;;;;;;;5.70;4.30;;;;;;;9.66;85.41;98087.91;4966758;28;20170;-82
2022/12/26 00:17:32;;;;;;;6.78;4.45;;;;;;;9.68;85.33;98083.28;4965261;28;20045;-82
2022/12/26 00:19:57;;;;;;;6.72;4.45;;;;;;;9.69;84.99;98086.69;4964025;28;20034;-83
2022/12/26 00:22:23;;;;;;;5.57;3.83;;;;;;;9.67;84.52;98084.28;4964271;28;20474;-83
2022/12/26 00:24:48;;;;;;;4.85;3.97;;;;;;;9.68;84.69;98085.88;4965905;28;20031;-83
2022/12/26 00:27:14;;;;;;;7.10;4.15;;;;;;;9.70;85.02;98083.88;4965206;28;20715;-83
2022/12/26 00:29:39;;;;;;;5.25;4.10;;;;;;;9.69;84.40;98092.75;4964942;28;20448;-83
2022/12/26 00:32:04;;;;;;;6.15;4.28;;;;;;;9.71;84.31;98090.72;4964370;28;20054;-83
2022/12/26 00:34:30;;;;;;;6.05;3.50;;;;;;;9.68;84.22;98085.09;4963293;28;20050;-83
2022/12/26 00:36:55;;;;;;;4.95;3.50;;;;;;;9.72;83.88;98079.28;4952344;28;20125;-83
2022/12/26 00:39:21;;;;;;;5.38;3.85;;;;;;;9.74;84.34;98087.72;4964158;28;20045;-83
2022/12/26 00:41:46;;;;;;;4.68;3.85;;;;;;;9.75;83.89;98073.63;4965911;28;20117;-83
2022/12/26 00:44:12;;;;;;;4.65;3.50;;;;;;;9.77;83.81;98079.47;4963639;28;20038;-82
2022/12/26 00:46:37;;;;;;;4.38;3.53;;;;;;;9.79;83.51;98085.34;4962133;28;20426;-82
2022/12/26 00:49:03;;;;;;;7.07;4.35;;;;;;;9.77;83.54;98071.63;4964276;28;20043;-83
2022/12/26 00:51:29;;;;;;;5.72;3.60;;;;;;;9.77;83.58;98076.84;4962826;28;20097;-83
2022/12/26 00:53:54;;;;;;;4.82;3.90;;;;;;;9.82;83.36;98079.69;4963844;28;20488;-83
2022/12/26 00:56:20;;;;;;;5.80;3.80;;;;;;;9.81;82.94;98080.72;4965007;28;20147;-83
2022/12/26 00:58:45;;;;;;;4.82;3.30;;;;;;;9.77;82.87;98073.44;4965158;28;20109;-83
2022/12/26 01:01:14;;;;;;;4.57;3.72;;;;;;;9.76;82.90;98080.47;4964270;28;20442;-83
2022/12/26 01:03:41;;;;;;;4.10;3.25;;;;;;;9.74;82.94;98074.63;4964361;28;20046;-83
2022/12/26 01:06:07;;;;;;;4.38;3.60;;;;;;;9.74;83.02;98079.06;4963764;28;20045;-83
2022/12/26 01:08:32;;;;;;;4.35;3.72;;;;;;;9.69;82.80;98071.78;4965236;28;20110;-83
2022/12/26 01:11:04;;;;;;;4.80;3.72;;;;;;;9.74;83.04;98076.44;4965181;28;20035;-83
2022/12/26 01:13:30;;;;;;;4.03;3.58;;;;;;;9.73;82.73;98083.50;4964329;28;20035;-83
2022/12/26 01:15:55;;;;;;;4.70;3.75;;;;;;;9.72;82.74;98071.41;4964233;28;20035;-83
2022/12/26 01:18:21;;;;;;;5.95;3.80;;;;;;;9.74;83.02;98079.88;4945074;28;20084;-83
2022/12/26 01:20:47;;;;;;;6.60;3.90;;;;;;;9.78;83.21;98086.34;4962199;28;20073;-83
2022/12/26 01:23:13;;;;;;;4.45;3.80;;;;;;;9.76;82.68;98087.53;4963322;28;20042;-83
2022/12/26 01:25:39;;;;;;;5.80;3.80;;;;;;;9.81;82.74;98082.53;4964387;28;20042;-83
2022/12/26 01:28:05;;;;;;;4.20;3.70;;;;;;;9.80;82.67;98083.53;4946550;28;20482;-83
2022/12/26 01:30:30;;;;;;;4.55;3.90;;;;;;;9.73;82.43;98078.25;4961504;28;20263;-83
2022/12/26 01:32:56;;;;;;;6.05;3.78;;;;;;;9.79;82.59;98090.59;4963505;28;20031;-83
2022/12/26 01:35:21;;;;;;;5.93;4.18;;;;;;;9.72;82.25;98079.28;4963142;28;20109;-83
2022/12/26 01:37:47;;;;;;;3.50;3.20;;;;;;;9.74;82.53;98087.72;4965356;28;20039;-83
2022/12/26 01:40:13;;;;;;;5.25;3.70;;;;;;;9.70;82.31;98075.22;4963956;28;20047;-83
2022/12/26 01:42:40;;;;;;;3.92;3.53;;;;;;;9.68;82.28;98075.41;4964946;28;20133;-83
2022/12/26 01:45:28;;;;;;;4.82;3.50;;;;;;;9.58;82.29;98081.00;4959951;28;20066;-83
2022/12/26 01:48:12;;;;;;;4.35;3.40;;;;;;;9.55;82.73;98078.78;4963164;28;20038;-83
2022/12/26 01:51:04;;;;;;;6.50;3.58;;;;;;;9.51;83.02;98087.19;4965602;28;20625;-83
2022/12/26 01:53:54;;;;;;;5.18;3.70;;;;;;;9.49;83.00;98078.75;4963613;28;20043;-82
2022/12/26 01:56:34;;;;;;;5.13;3.70;;;;;;;9.50;82.99;98080.34;4963286;28;20046;-83
2022/12/26 01:59:14;;;;;;;5.93;3.50;;;;;;;9.47;82.93;98091.19;4961939;28;20061;-83
2022/12/26 02:01:42;;;;;;;4.13;3.30;;;;;;;9.45;82.97;98098.44;4963420;28;20050;-82
2022/12/26 02:07:03;;;;;;;5.57;3.03;;;;;;;9.50;83.24;98077.75;4963568;28;20041;-83
2022/12/26 02:09:30;;;;;;;4.88;3.20;;;;;;;9.53;83.20;98072.09;4962978;28;20098;-83
2022/12/26 02:12:06;;;;;;;4.35;3.17;;;;;;;9.56;83.21;98076.97;4963866;28;20039;-83
2022/12/26 02:14:32;;;;;;;5.95;3.40;;;;;;;9.55;83.37;98064.88;4961939;28;20042;-83
2022/12/26 02:16:58;;;;;;;4.10;3.38;;;;;;;9.57;83.52;98060.25;4962821;28;20039;-83
2022/12/26 02:19:38;;;;;;;5.85;3.28;;;;;;;9.58;83.10;98074.94;4963484;28;20486;-83
2022/12/26 02:22:49;;;;;;;5.68;3.15;;;;;;;9.59;82.91;98061.66;4962253;28;20035;-82
2022/12/26 02:25:20;;;;;;;6.50;3.30;;;;;;;9.57;82.64;98078.56;4961948;28;20035;-82
2022/12/26 02:28:07;;;;;;;4.10;3.45;;;;;;;9.55;82.69;98081.41;4963091;28;20110;-83
2022/12/26 02:30:59;;;;;;;4.45;3.13;;;;;;;9.55;82.36;98075.34;4963147;28;20030;-83
2022/12/26 02:33:41;;;;;;;6.68;2.95;;;;;;;9.54;82.30;98076.38;4962947;28;20035;-83
2022/12/26 02:36:26;;;;;;;5.57;3.28;;;;;;;9.56;82.32;98071.72;4942953;28;20394;-83
2022/12/26 02:39:28;;;;;;;4.95;3.60;;;;;;;9.60;82.54;98063.31;4947234;28;20031;-83
2022/12/26 02:42:21;;;;;;;3.67;2.97;;;;;;;9.57;82.36;98061.06;4947066;28;20039;-83
2022/12/26 02:48:05;;;;;;;3.42;3.10;;;;;;;9.62;82.00;98066.53;4947562;28;20111;-83
2022/12/26 03:15:01;;;;;;;3.53;3.00;;;;;;;9.52;81.75;98066.06;4947894;28;20521;-82
2022/12/26 03:18:02;;;;;;;4.35;3.00;;;;;;;9.57;81.83;98079.38;4946459;28;20564;-83
2022/12/26 03:20:37;;;;;;;4.72;3.17;;;;;;;9.56;81.31;98071.72;4948878;28;20126;-83
2022/12/26 03:23:12;;;;;;;4.22;3.40;;;;;;;9.63;81.14;98069.94;4949545;28;20035;-83
2022/12/26 03:28:43;;;;;;;8.35;4.15;;;;;;;9.69;80.38;98077.03;4947645;28;20046;-83
2022/12/26 03:31:14;;;;;;;4.53;3.63;;;;;;;9.76;79.98;98079.69;4948477;28;20111;-82
2022/12/26 03:36:49;;;;;;;4.97;3.92;;;;;;;9.85;79.93;98087.19;4966964;28;20050;-83
2022/12/26 04:19:23;;;;;;;6.07;3.33;;;;;;;10.01;79.24;98087.84;4964877;28;20085;-82
2022/12/26 04:45:53;;;;;;;5.40;3.28;;;;;;;9.97;79.77;98087.44;4960406;28;20485;-83
2022/12/26 04:51:03;;;;;;;3.90;3.03;;;;;;;9.95;79.65;98099.09;4965625;28;20105;-82
2022/12/26 04:53:29;;;;;;;4.68;3.17;;;;;;;9.95;79.63;98091.25;4964781;28;20047;-83
2022/12/26 04:55:54;;;;;;;3.55;2.90;;;;;;;9.91;79.58;98085.59;4965820;28;20031;-83
2022/12/26 04:58:23;;;;;;;4.03;3.20;;;;;;;9.91;79.69;98096.88;4964370;28;20038;-82
2022/12/26 05:00:49;;;;;;;4.60;3.20;;;;;;;9.87;79.65;98085.16;4964003;28;20039;-82
2022/12/26 05:11:33;;;;;;;3.97;3.10;;;;;;;9.85;79.94;98070.66;4962880;28;20033;-82
2022/12/26 05:13:59;;;;;;;3.70;3.10;;;;;;;9.86;79.87;98061.78;4964677;28;20040;-83
2022/12/26 05:30:25;;;;;;;3.35;3.03;;;;;;;9.87;79.48;98058.97;4964790;28;20443;-83
2022/12/26 05:35:36;;;;;;;4.28;2.88;;;;;;;9.89;79.33;98070.06;4962535;28;20137;-83
2022/12/26 05:38:02;;;;;;;4.40;3.40;;;;;;;9.95;79.33;98070.28;4947571;28;20050;-83
2022/12/26 05:40:28;;;;;;;3.63;3.05;;;;;;;9.91;79.47;98049.72;4963792;28;20034;-82
2022/12/26 05:42:53;;;;;;;3.78;3.25;;;;;;;9.92;78.84;98056.56;4966664;28;20035;-83
2022/12/26 05:45:19;;;;;;;4.78;3.30;;;;;;;10.02;78.98;98071.13;4960565;28;20042;-82
2022/12/26 05:47:45;;;;;;;6.53;3.42;;;;;;;10.04;78.92;98072.53;4963775;28;20466;-83
2022/12/26 05:50:10;;;;;;;6.15;2.70;;;;;;;10.05;78.63;98058.44;4963988;28;20038;-83
2022/12/26 05:52:36;;;;;;;4.35;2.88;;;;;;;10.12;78.32;98061.06;4964394;28;20042;-83
2022/12/26 05:55:01;;;;;;;3.45;3.00;;;;;;;10.12;78.28;98050.59;4966120;28;20034;-83
2022/12/26 05:57:27;;;;;;;4.95;3.13;;;;;;;10.17;78.49;98062.09;4962988;28;20070;-83
2022/12/26 05:59:52;;;;;;;3.80;2.67;;;;;;;10.16;78.28;98051.81;4966115;28;20061;-83
2022/12/26 06:02:18;;;;;;;3.00;2.70;;;;;;;10.23;77.79;98067.56;4961837;28;20035;-83
2022/12/26 06:04:43;;;;;;;3.95;3.03;;;;;;;10.28;77.78;98071.22;4963155;28;20039;-83
2022/12/26 06:07:09;;;;;;;4.95;2.88;;;;;;;10.32;77.42;98075.09;4960676;28;20039;-83
2022/12/26 06:09:34;;;;;;;3.90;3.00;;;;;;;10.35;77.81;98081.72;4963728;28;20157;-83
2022/12/26 06:12:00;;;;;;;4.40;3.00;;;;;;;10.40;77.36;98074.88;4961811;28;20061;-83
2022/12/26 06:14:25;;;;;;;3.20;2.90;;;;;;;10.43;77.42;98082.38;4944808;28;20069;-83
2022/12/26 06:16:51;;;;;;;4.25;3.13;;;;;;;10.49;77.08;98078.13;4963806;28;20035;-82
2022/12/26 06:19:17;;;;;;;3.78;3.03;;;;;;;10.51;77.26;98065.63;4963363;28;20039;-83
2022/12/26 06:21:42;;;;;;;3.75;3.30;;;;;;;10.52;77.48;98062.00;4962148;28;20627;-83
2022/12/26 06:24:08;;;;;;;3.45;2.78;;;;;;;10.54;77.14;98065.22;4962302;28;20035;-83
2022/12/26 06:26:33;;;;;;;4.88;3.30;;;;;;;10.53;76.90;98062.81;4962157;28;20046;-83
2022/12/26 06:28:59;;;;;;;6.22;2.75;;;;;;;10.53;77.04;98060.19;4963627;28;20035;-83
2022/12/26 06:31:25;;;;;;;4.78;3.20;;;;;;;10.55;76.50;98066.03;4962806;28;20046;-83
2022/12/26 06:33:57;;;;;;;4.35;3.25;;;;;;;10.58;76.62;98060.41;4963288;28;20065;-83
2022/12/26 06:36:25;;;;;;;3.55;2.78;;;;;;;10.55;76.87;98058.16;4962503;28;20042;-83
2022/12/26 06:38:53;;;;;;;4.28;3.22;;;;;;;10.58;76.55;98057.78;4963529;28;20027;-83
2022/12/26 06:41:21;;;;;;;5.63;3.10;;;;;;;10.59;76.66;98051.53;4963094;28;20124;-83
2022/12/26 06:43:47;;;;;;;3.20;2.90;;;;;;;10.61;76.53;98068.66;4963534;28;20031;-82
2022/12/26 06:46:17;;;;;;;3.67;2.90;;;;;;;10.66;76.46;98065.44;4943301;28;20463;-83
2022/12/26 06:48:43;;;;;;;4.23;2.90;;;;;;;10.69;76.02;98075.53;4965553;28;20043;-83
2022/12/26 06:51:13;;;;;;;3.45;2.80;;;;;;;10.65;75.92;98069.88;4962279;28;20034;-83
2022/12/26 06:53:40;;;;;;;3.80;2.90;;;;;;;10.67;76.29;98074.91;4945405;28;20063;-83
2022/12/26 06:56:18;;;;;;;4.78;2.97;;;;;;;10.69;75.99;98076.34;4962436;28;20286;-83
2022/12/26 06:58:45;;;;;;;3.78;3.03;;;;;;;10.72;76.16;98085.63;4963233;28;20490;-83
2022/12/26 07:01:18;;;;;;;5.45;3.28;;;;;;;10.73;76.61;98076.75;4962207;28;20418;-82
2022/12/26 07:03:46;;;;;;;4.38;3.60;;;;;;;10.70;76.12;98079.78;4966814;28;20497;-83
2022/12/26 07:06:17;;;;;;;3.45;2.88;;;;;;;10.78;76.37;98081.38;4961584;28;20074;-83
2022/12/26 07:08:42;;;;;;;4.28;2.85;;;;;;;10.79;76.48;98073.31;4962227;28;20066;-83
2022/12/26 07:11:26;;;;;;;3.58;2.97;;;;;;;10.80;76.17;98084.63;4962860;28;20077;-82
2022/12/26 07:13:53;;;;;;;3.67;2.80;;;;;;;10.75;76.14;98087.84;4961603;28;20073;-83
2022/12/26 07:16:19;;;;;;;3.38;2.70;;;;;;;10.74;76.09;98088.88;4962669;28;20039;-83
2022/12/26 07:18:44;;;;;;;6.95;2.95;;;;;;;10.78;76.61;98087.44;4961795;28;20049;-83
2022/12/26 07:21:14;;;;;;;3.25;2.83;;;;;;;10.83;75.98;98081.59;4961863;28;20062;-82
2022/12/26 07:23:40;;;;;;;4.78;3.00;;;;;;;10.83;76.15;98089.47;4962888;28;20122;-82
2022/12/26 07:26:07;;;;;;;4.63;3.00;;;;;;;10.82;76.20;98096.53;4962374;28;20045;-83
2022/12/26 07:28:32;;;;;;;5.78;3.20;;;;;;;10.84;76.41;98101.56;4962493;28;20041;-83
2022/12/26 07:30:59;;;;;;;4.53;3.17;;;;;;;10.81;75.97;98087.06;4962092;28;20031;-82
2022/12/26 07:33:27;;;;;;;3.70;2.90;;;;;;;10.83;76.20;98090.28;4962502;28;20035;-83
2022/12/26 07:35:58;;;;;;;4.85;3.30;;;;;;;10.85;75.88;98103.19;4962141;28;20134;-83
2022/12/26 07:38:24;;;;;;;4.30;2.95;;;;;;;10.87;75.83;98112.50;4961798;28;20382;-83
2022/12/26 07:40:49;;;;;;;3.03;2.67;;;;;;;10.90;76.03;98109.44;4960632;28;20035;-83
2022/12/26 07:43:15;;;;;;;3.88;2.80;;;;;;;10.91;75.80;98107.63;4962370;28;20121;-83
2022/12/26 07:45:40;;;;;;;3.30;2.80;;;;;;;10.95;75.54;98119.34;4962420;28;20118;-83
2022/12/26 07:48:06;;;;;;;3.28;2.97;;;;;;;10.95;75.48;98108.84;4947589;28;20498;-82
2022/12/26 07:50:32;;;;;;;5.07;2.70;;;;;;;10.99;75.15;98121.38;4952463;28;20118;-83
2022/12/26 07:52:59;;;;;;;4.15;2.88;;;;;;;10.99;74.87;98117.94;4965958;28;20042;-82
2022/12/26 07:55:24;;;;;;;3.13;2.40;;;;;;;11.04;75.23;98117.34;4965579;28;20039;-82
2022/12/26 07:57:51;;;;;;;3.40;2.70;;;;;;;11.06;75.56;98120.56;4965321;28;20042;-83
2022/12/26 08:00:19;;;;;;;3.22;2.63;;;;;;;11.10;75.76;98108.66;4964915;28;20042;-82
2022/12/26 08:02:50;;;;;;;3.92;3.17;;;;;;;11.12;75.59;98110.06;4965020;28;20587;-82
2022/12/26 08:05:17;;;;;;;3.42;2.85;;;;;;;11.16;75.76;98105.22;4964741;28;20039;-82
2022/12/26 08:07:46;;;;;;;3.28;2.67;;;;;;;11.15;74.85;98106.22;4964813;28;20524;-83
2022/12/26 08:10:11;;;;;;;3.38;2.83;;;;;;;11.18;75.06;98113.69;4964952;28;20077;-83
2022/12/26 08:12:37;;;;;;;5.13;3.15;;;;;;;11.20;74.97;98119.53;4965101;28;20521;-82
2022/12/26 08:15:03;;;;;;;5.72;3.30;;;;;;;11.18;75.26;98116.31;4959397;28;20386;-83
2022/12/26 08:17:30;;;;;;;3.78;3.20;;;;;;;11.19;74.82;98121.38;4962372;28;20039;-83
2022/12/26 08:19:55;;;;;;;3.15;2.65;;;;;;;11.17;75.18;98104.22;4963936;28;20600;-83
2022/12/26 08:22:21;;;;;;;6.25;3.00;;;;;;;11.19;75.20;98099.56;4961833;28;20042;-83
2022/12/26 08:24:46;;;;;;;4.18;2.90;;;;;;;11.18;75.35;98103.19;4963985;28;20537;-82
2022/12/26 08:27:12;;;;;;;3.15;2.85;;;;;;;11.26;75.02;98122.16;4964394;28;20845;-82
2022/12/26 08:29:37;;;;;;;3.50;2.53;;;;;;;11.26;74.88;98121.38;4963590;28;20077;-83
2022/12/26 08:32:03;;;;;;;4.18;2.80;;;;;;;11.23;74.61;98116.53;4963952;28;20035;-82
2022/12/26 08:34:34;;;;;;;4.25;3.28;;;;;;;11.27;74.69;98128.22;4965298;28;20130;-83
2022/12/26 08:36:59;;;;;;;3.38;2.95;;;;;;;11.27;74.79;98133.47;4964211;28;20133;-83
2022/12/26 08:39:25;;;;;;;4.32;3.17;;;;;;;11.26;75.18;98132.66;4964509;28;20145;-83
2022/12/26 08:41:50;;;;;;;4.70;2.95;;;;;;;11.26;74.77;98129.25;4963701;28;20046;-82
2022/12/26 08:44:16;;;;;;;4.10;3.00;;;;;;;11.30;76.62;98140.97;4963258;28;20654;-82
2022/12/26 08:46:43;;;;;;;3.95;2.70;;;;;;;11.28;77.22;98153.50;4960645;28;20027;-82
2022/12/26 08:49:08;;;;;;;5.82;3.47;;;;;;;11.20;78.24;98143.97;4964699;28;20035;-82
2022/12/26 08:51:34;;;;;;;6.28;3.17;;;;;;;11.26;79.23;98152.88;4964767;28;20041;-82
2022/12/26 08:54:00;;;;;;;3.63;3.00;;;;;;;11.33;79.80;98148.41;4961146;28;20390;-82
2022/12/26 08:56:27;;;;;;;4.03;3.53;;;;;;;11.26;77.90;98156.28;4960257;28;20031;-83
2022/12/26 08:58:53;;;;;;;4.30;2.83;;;;;;;11.31;78.75;98157.53;4961176;28;20090;-83
2022/12/26 09:01:26;;;;;;;4.60;3.08;;;;;;;11.25;78.29;98159.13;4964291;28;20074;-83
2022/12/26 09:03:58;;;;;;;4.53;3.30;;;;;;;11.33;78.19;98160.75;4963689;28;20041;-82
2022/12/26 09:06:24;;;;;;;8.00;3.20;;;;;;;11.39;79.12;98158.09;4962379;28;20108;-83
2022/12/26 09:08:49;;;;;;;4.32;3.10;;;;;;;11.39;77.70;98158.09;4964358;28;20050;-83
2022/12/26 09:11:20;;;;;;;3.22;2.92;;;;;;;11.57;79.00;98154.06;4963371;28;20486;-82
2022/12/26 09:13:46;;;;;;;3.80;3.10;;;;;;;11.68;79.14;98159.50;4943013;28;20030;-83
2022/12/26 09:16:20;;;;;;;3.65;3.03;;;;;;;11.68;78.60;98148.19;4964198;28;20027;-83
2022/12/26 09:18:47;;;;;;;3.40;2.83;;;;;;;11.71;78.34;98158.28;4964664;28;20038;-82
2022/12/26 09:21:14;;;;;;;3.83;3.13;;;;;;;11.67;79.16;98157.88;4960580;28;20035;-82
2022/12/26 09:23:42;;;;;;;4.22;3.40;;;;;;;11.70;79.32;98156.69;4962891;28;20117;-82
2022/12/26 09:26:19;;;;;;;4.60;3.42;;;;;;;11.69;79.70;98147.16;4962105;28;20118;-83
2022/12/26 09:28:46;;;;;;;4.18;2.92;;;;;;;11.70;78.44;98157.50;4943398;28;20035;-82
2022/12/26 09:31:18;;;;;;;4.30;3.10;;;;;;;11.69;79.82;98153.22;4950797;28;20046;-82
2022/12/26 09:33:45;;;;;;;4.80;3.40;;;;;;;11.66;80.11;98163.34;4957682;28;20059;-82
2022/12/26 09:36:15;;;;;;;5.97;3.75;;;;;;;11.65;79.86;98157.28;4944621;28;20047;-82
2022/12/26 09:38:46;;;;;;;4.45;2.97;;;;;;;11.62;80.20;98172.66;4944047;28;20325;-83
2022/12/26 09:41:42;;;;;;;5.93;3.13;;;;;;;11.50;80.60;98183.75;4946450;28;20033;-83
2022/12/26 09:44:52;;;;;;;3.38;2.30;;;;;;;11.34;80.76;98178.13;4946591;28;20183;-82
2022/12/26 09:47:45;;;;;;;5.45;3.10;;;;;;;11.32;82.39;98175.69;4946828;28;20039;-83
2022/12/26 09:50:33;;;;;;;4.50;3.28;;;;;;;11.35;82.57;98172.66;4945772;28;20514;-83
2022/12/26 09:53:05;;;;;;;5.40;3.47;;;;;;;11.39;83.41;98173.06;4949802;28;20035;-84
2022/12/26 09:55:47;;;;;;;4.45;3.20;;;;;;;11.44;84.08;98181.94;4945825;28;20544;-83
2022/12/26 09:58:32;;;;;;;5.13;3.08;;;;;;;11.41;83.74;98182.38;4950137;28;20477;-82
2022/12/26 10:01:03;;;;;;;5.68;3.58;;;;;;;11.39;83.05;98188.81;4947985;28;20035;-82
2022/12/26 10:03:34;;;;;;;4.20;3.20;;;;;;;11.38;83.45;98193.25;4948800;28;20066;-82
2022/12/26 10:06:19;;;;;;;4.07;3.20;;;;;;;11.33;83.92;98200.94;4948570;28;20030;-82
2022/12/26 10:09:39;;;;;;;4.97;2.95;;;;;;;11.24;83.97;98197.72;4950904;28;20038;-82
2022/12/26 10:12:14;;;;;;;4.25;3.17;;;;;;;11.30;84.78;98200.53;4947374;28;20037;-82
2022/12/26 10:15:14;;;;;;;6.05;3.45;;;;;;;11.32;85.38;98199.31;4947729;28;20059;-83
2022/12/26 10:17:54;;;;;;;4.53;3.28;;;;;;;11.24;85.39;98194.28;4948180;28;20055;-82
2022/12/26 10:20:31;;;;;;;5.68;4.28;;;;;;;11.27;86.08;98196.50;4944087;28;20495;-82
2022/12/26 10:23:29;;;;;;;5.32;4.32;;;;;;;11.25;86.95;98204.56;4942901;28;20130;-82
2022/12/26 10:26:16;;;;;;;3.90;3.50;;;;;;;11.26;87.60;98194.88;4943023;28;20058;-82
2022/12/26 10:29:01;;;;;;;4.50;3.08;;;;;;;11.16;86.88;98208.41;4944093;28;20090;-82
2022/12/26 10:31:58;;;;;;;5.03;3.40;;;;;;;11.08;88.34;98218.28;4943606;28;20049;-83
2022/12/26 10:34:31;;;;;;;6.63;4.05;;;;;;;10.93;91.55;98224.53;4959608;28;20078;-82
2022/12/26 10:37:30;;;;;;;4.35;3.25;;;;;;;10.78;97.27;98228.31;4961177;28;20035;-83
2022/12/26 10:40:17;;;;;;;7.50;3.85;;;;;;;10.66;100.00;98225.44;4961292;28;20513;-83
2022/12/26 10:42:53;;;;;;;5.10;3.30;;;;;;;10.54;100.00;98233.06;4963024;28;20031;-82
2022/12/26 10:45:46;;;;;;;6.40;3.53;;;;;;;10.51;100.00;98232.66;4960920;28;20042;-82
2022/12/26 10:48:14;;;;;;;6.13;3.60;;;;;;;10.45;99.73;98239.50;4962232;28;20047;-82
2022/12/26 10:50:47;;;;;;;5.70;2.72;;;;;;;10.37;99.63;98240.44;4963437;28;20043;-82
2022/12/26 10:53:15;;;;;;;4.32;2.80;;;;;;;10.33;100.00;98231.38;4962220;28;20034;-82
2022/12/26 10:55:40;;;;;;;5.28;3.10;;;;;;;10.32;100.00;98240.25;4961840;28;20036;-82
2022/12/26 10:58:31;;;;;;;4.80;2.85;;;;;;;10.28;100.00;98230.34;4961240;28;20066;-83
2022/12/26 11:01:37;;;;;;;7.38;3.40;;;;;;;10.27;100.00;98247.88;4961862;28;20049;-83
2022/12/26 11:04:14;;;;;;;4.32;2.70;;;;;;;10.24;100.00;98245.63;4961374;28;20586;-83
2022/12/26 11:06:42;;;;;;;3.05;1.95;;;;;;;10.23;100.00;98246.63;4962435;28;20572;-82
2022/12/26 11:09:40;;;;;;;5.40;3.30;;;;;;;10.19;100.00;98221.78;4963223;28;20377;-82
2022/12/26 11:12:19;;;;;;;5.63;2.70;;;;;;;10.18;99.95;98228.03;4965641;28;20117;-82
2022/12/26 11:14:45;;;;;;;9.68;3.47;;;;;;;10.27;100.00;98239.22;4945295;28;20042;-83
2022/12/26 11:17:25;;;;;;;5.93;3.42;;;;;;;10.26;99.73;98230.53;4962784;28;20027;-83
2022/12/26 11:20:14;;;;;;;4.07;2.70;;;;;;;10.25;98.98;98230.69;4963456;28;20035;-83
2022/12/26 11:22:40;;;;;;;3.75;2.67;;;;;;;10.20;97.28;98241.75;4965465;28;20046;-83
2022/12/26 11:25:09;;;;;;;3.78;2.65;;;;;;;10.22;97.37;98231.88;4965649;28;20094;-82
2022/12/26 11:27:45;;;;;;;3.38;2.17;;;;;;;10.17;96.31;98232.47;4965249;28;20039;-83
2022/12/26 11:30:24;;;;;;;3.05;2.38;;;;;;;10.17;94.75;98231.66;4966354;28;20042;-83
2022/12/26 11:33:09;;;;;;;3.30;2.13;;;;;;;10.20;94.76;98231.28;4963460;28;20034;-83
2022/12/26 11:35:44;;;;;;;3.35;2.17;;;;;;;10.22;93.85;98237.13;4964775;28;20143;-83
2022/12/26 11:38:33;;;;;;;2.80;1.65;;;;;;;10.21;93.54;98222.41;4966677;28;20042;-83
2022/12/26 11:43:48;;;;;;;4.55;2.05;;;;;;;10.10;93.92;98209.84;4965434;28;20027;-82
2022/12/26 11:46:14;;;;;;;4.35;2.45;;;;;;;10.10;94.73;98212.47;4960699;28;20089;-82
2022/12/26 11:48:40;;;;;;;3.40;2.22;;;;;;;10.11;93.88;98220.13;4965040;28;20070;-83
2022/12/26 11:51:08;;;;;;;3.60;2.35;;;;;;;10.15;94.20;98225.81;4964216;28;20071;-83
2022/12/26 11:53:33;;;;;;;3.50;2.33;;;;;;;10.14;94.73;98222.38;4965065;28;20039;-82
2022/12/26 11:56:05;;;;;;;2.83;2.33;;;;;;;10.09;92.72;98210.84;4964296;28;20039;-83
2022/12/26 11:58:33;;;;;;;2.78;2.08;;;;;;;10.14;93.77;98213.72;4948144;28;20051;-83
2022/12/26 12:00:59;;;;;;;2.85;1.92;;;;;;;10.10;93.91;98199.38;4964666;28;20455;-82
2022/12/26 12:03:35;;;;;;;3.30;2.17;;;;;;;10.16;93.90;98209.06;4965855;28;20093;-83
2022/12/26 12:06:53;;;;;;;2.38;1.70;;;;;;;10.22;93.27;98210.91;4964588;28;20043;-82
2022/12/26 12:09:44;;;;;;;2.80;1.80;;;;;;;10.27;93.70;98192.81;4963259;28;20038;-82
2022/12/26 12:12:32;;;;;;;3.80;1.93;;;;;;;10.28;91.66;98197.06;4963970;28;20066;-82
2022/12/26 12:15:24;;;;;;;2.92;2.00;;;;;;;10.29;91.56;98201.28;4965211;28;20290;-82
2022/12/26 12:18:33;;;;;;;2.85;1.90;;;;;;;10.32;91.87;98205.34;4961607;28;20099;-82
2022/12/26 12:21:18;;;;;;;3.45;2.05;;;;;;;10.25;92.41;98176.47;4940649;28;20525;-82
2022/12/26 12:24:27;;;;;;;3.25;2.10;;;;;;;10.26;92.32;98193.03;4961024;28;20356;-82
2022/12/26 12:27:07;;;;;;;2.85;1.90;;;;;;;10.23;91.14;98212.56;4963149;28;20026;-83
2022/12/26 12:29:47;;;;;;;4.97;2.17;;;;;;;10.29;91.71;98214.41;4963372;28;20043;-82
2022/12/26 12:32:24;;;;;;;2.67;1.83;;;;;;;10.25;91.06;98213.16;4961375;28;20395;-82
2022/12/26 12:35:15;;;;;;;2.60;1.95;;;;;;;10.28;91.50;98201.50;4951832;28;20058;-82
2022/12/26 12:38:32;;;;;;;2.50;2.00;;;;;;;10.31;91.40;98201.91;4946659;28;20055;-82
2022/12/26 12:42:04;;;;;;;4.00;1.90;;;;;;;10.33;90.27;98210.41;4949859;28;20380;-82
2022/12/26 12:45:18;;;;;;;4.45;1.88;;;;;;;10.34;90.35;98206.78;4873702;29;20543;-83
2022/12/26 12:48:34;;;;;;;2.83;2.10;;;;;;;10.35;89.87;98208.38;4949748;28;20039;-83
2022/12/26 12:51:55;;;;;;;2.58;2.15;;;;;;;10.42;90.18;98203.16;4907886;29;20040;-82
2022/12/26 12:54:40;;;;;;;4.03;2.10;;;;;;;10.44;89.08;98196.72;4947271;28;20062;-82
2022/12/26 12:57:26;;;;;;;2.03;1.80;;;;;;;10.46;89.63;98188.66;4946790;28;20158;-83
2022/12/26 13:00:23;;;;;;;3.05;1.88;;;;;;;10.47;88.19;98194.72;4950491;28;20081;-82
2022/12/26 13:03:10;;;;;;;1.65;1.42;;;;;;;10.45;89.02;98203.59;4948213;28;20035;-82
2022/12/26 13:06:04;;;;;;;3.03;1.80;;;;;;;10.44;88.69;98199.34;4951626;28;20046;-82
2022/12/26 13:08:47;;;;;;;1.88;1.70;;;;;;;10.40;88.08;98205.97;4952094;28;20043;-82
2022/12/26 13:11:29;;;;;;;1.48;1.38;;;;;;;10.34;87.06;98222.50;4950794;28;20031;-82
2022/12/26 13:14:44;;;;;;;4.82;1.90;;;;;;;10.32;87.85;98202.75;4947536;28;20027;-83
2022/12/26 13:17:35;;;;;;;1.55;1.40;;;;;;;10.32;87.01;98181.75;4938848;28;20127;-82
2022/12/26 13:20:20;;;;;;;1.92;1.73;;;;;;;10.30;87.83;98176.69;4942080;28;20050;-83
2022/12/26 13:25:48;;;;;;;2.28;1.60;;;;;;;10.31;87.34;98191.41;4945063;28;20036;-83
2022/12/26 13:28:31;;;;;;;1.77;1.40;;;;;;;10.36;86.91;98190.84;4945158;28;20114;-82
2022/12/26 13:30:57;;;;;;;2.42;1.60;;;;;;;10.34;86.41;98195.47;4945965;28;20043;-82
2022/12/26 13:33:23;;;;;;;2.97;1.67;;;;;;;10.34;86.85;98179.75;4944725;28;20508;-83
2022/12/26 13:36:01;;;;;;;1.98;1.77;;;;;;;10.33;88.11;98184.19;4964550;28;20041;-83
2022/12/26 13:38:57;;;;;;;1.60;1.50;;;;;;;10.15;93.22;98199.59;4963974;28;20061;-83
2022/12/26 13:44:18;;;;;;;3.97;1.70;;;;;;;10.04;100.00;98187.03;4963093;28;20027;-82
2022/12/26 13:46:46;;;;;;;2.00;1.75;;;;;;;10.03;100.00;98193.28;4964292;28;20066;-82
2022/12/26 13:49:37;;;;;;;1.55;1.25;;;;;;;10.04;94.67;98197.50;4965044;28;20039;-82
2022/12/26 13:52:14;;;;;;;2.10;1.73;;;;;;;10.07;93.57;98202.34;4962824;28;20035;-83
2022/12/26 13:54:46;;;;;;;2.50;1.77;;;;;;;10.04;93.51;98205.38;4963361;28;20123;-82
2022/12/26 13:57:43;;;;;;;4.05;2.10;;;;;;;10.04;92.64;98205.38;4963542;28;20042;-83
2022/12/26 14:00:31;;;;;;;2.63;1.85;;;;;;;10.08;93.33;98196.94;4963178;28;20065;-82
2022/12/26 14:03:13;;;;;;;2.42;2.10;;;;;;;10.08;92.46;98206.63;4953762;28;20039;-82
2022/12/26 14:06:29;;;;;;;2.08;1.83;;;;;;;10.05;91.85;98217.47;4960639;28;20114;-83
2022/12/26 14:09:38;;;;;;;2.53;2.28;;;;;;;10.09;91.87;98203.00;4922215;28;20039;-82
2022/12/26 14:12:25;;;;;;;2.38;2.15;;;;;;;10.15;91.67;98197.78;4962262;28;20035;-83
2022/12/26 14:15:29;;;;;;;2.97;2.25;;;;;;;10.15;92.41;98204.84;4944530;28;20049;-83
2022/12/26 14:18:41;;;;;;;2.85;2.58;;;;;;;10.16;92.53;98196.78;4963964;28;20030;-82
2022/12/26 14:21:19;;;;;;;2.58;2.30;;;;;;;10.17;90.95;98194.97;4958312;28;20046;-84
2022/12/26 14:23:55;;;;;;;2.38;2.10;;;;;;;10.17;91.33;98203.63;4959721;28;20097;-82
2022/12/26 14:26:42;;;;;;;3.45;2.28;;;;;;;10.18;90.63;98207.06;4962998;28;20058;-83
2022/12/26 14:29:23;;;;;;;3.78;1.85;;;;;;;10.19;90.78;98206.03;4961220;28;20146;-83